Kilwinning, United Kingdom
Current Conditions -  °F | °C
As of 1:20 PM on Saturday 25 Oct 2014 (Local Time) from EGPK Reporting Station
Few Clouds Few Clouds  
Wind Chill: 55°   Ceiling: Unl
Heat Index: 55°   Visibility: 6mi
Dew Point: 46°   Wind: 18mph
Humidity: 72%   Direction: 210°SSW
Pressure: 29.71"   Gusts: NA
Location:  55.65°N, 4.71°W
Report Text: EGPK 251220Z 21016KT 9999 FEW022 13/08 Q1006
Loading
Personal Weather Stations






























Interactive Weather Map
Tropical Storm Tracking
New forecast layout! Learn more

10-Day Weather Forecast

Advertisements
Track Severe Weather on mobile